Accueil
METAR-TAF:

METAR-TAF

Aéroports :

Nörvenich, Allemagne

Base aérienne de Nörvenich

latitude: 50-50N, longitude: 006-40E, altitude: 118 m

Observation

Le bulletin a été fait il y a 16 minutes, à 22:20 UTC
Vent 5 kt de ouest
Température 6°C
Humidité 70%
Pression 1015 hPa
Visibilité 10 km ou plus
Quelques nuages à une hauteur de 6000 ft
Nuages fragmentés à une hauteur de 9000 ft

METAR: ETNN 272220Z 26005KT 9999 FEW060 BKN090 06/01 Q1015 BLU

Heure: 00:36 (22:36 UTC)

Prévision

Le bulletin a été fait il y a 3 heures et 26 minutes, à 19:10 UTC
Prévision valable du 27 à 20 UTC au 28 à 05 UTC
Vent 5 kt de ouest
Visibilité 10 km ou plus
Quelques nuages à une hauteur de 5000 ft
Nuages fragmentés à une hauteur de 8000 ft

TAF: ETNN 271910Z 2720/2805 27005KT 9999 NSW FEW050 BKN080 BY ETGL

Observations et prévisions météorologiques de plus de 4000 aéroports (messages METAR et TAF).

Les stations disponibles sont représentées par des disques jaunes et rouges sur la carte.

Passer la souris dessus pour voir le nom de la station.

Cliquer dessus pour voir les observations et prévisions météorologiques.

Pour changer de carte: cliquez sur les boutons verts avec une croix noire pour zoomer, sur le bouton vert avec un tiret pour effectuer un zoom arrière, ou sur les flèches vertes pour les cartes adjacentes.


METAR-TAF: